Time;durP1;ratioP1;P1;durP2;ratioP2;P2;SDS_P1;SDS_P2;PMS_P1;PMS_P2;Temp;Humidity;BMP_temperature;BMP_pressure;BME280_temperature;BME280_humidity;BME280_pressure;Samples;Min_cycle;Max_cycle;Signal;HPM_P1;HPM_P2
2021/12/04 00:00:41;;;;;;;16.65;3.60;;;13.10;99.90;;;;;;4895865;29;20029;-71
2021/12/04 00:03:07;;;;;;;18.02;3.35;;;13.10;99.90;;;;;;4895922;29;20096;-70
2021/12/04 00:05:33;;;;;;;23.10;3.90;;;13.10;99.90;;;;;;4880619;29;20033;-68
2021/12/04 00:07:59;;;;;;;19.95;3.72;;;13.20;99.90;;;;;;4896764;29;20112;-69
2021/12/04 00:10:28;;;;;;;19.23;3.40;;;13.10;99.90;;;;;;4895105;29;20124;-68
2021/12/04 00:12:54;;;;;;;21.60;4.05;;;13.10;99.90;;;;;;4895774;29;20088;-69
2021/12/04 00:15:20;;;;;;;22.85;3.10;;;13.20;99.90;;;;;;4891631;29;20068;-68
2021/12/04 00:17:46;;;;;;;17.33;3.28;;;13.20;99.90;;;;;;4895206;29;20048;-69
2021/12/04 00:20:12;;;;;;;21.20;3.38;;;13.10;99.90;;;;;;4895969;29;20043;-70
2021/12/04 00:22:38;;;;;;;21.77;3.45;;;13.10;99.90;;;;;;4895589;29;20398;-69
2021/12/04 00:25:06;;;;;;;22.65;3.67;;;13.10;99.90;;;;;;4891442;29;20048;-70
2021/12/04 00:27:32;;;;;;;23.60;3.55;;;13.10;99.90;;;;;;4892577;29;20138;-68
2021/12/04 00:29:58;;;;;;;26.25;4.32;;;13.10;99.90;;;;;;4880938;29;20107;-67
2021/12/04 00:32:32;;;;;;;25.33;4.22;;;13.20;99.90;;;;;;4894415;29;20032;-69
2021/12/04 00:35:22;;;;;;;23.65;4.43;;;13.20;99.90;;;;;;4896633;29;20371;-69
2021/12/04 00:38:08;;;;;;;25.65;4.70;;;13.10;99.90;;;;;;4884219;29;20048;-69
2021/12/04 00:51:13;;;;;;;18.45;3.65;;;13.10;99.90;;;;;;4895728;29;19918;-68
2021/12/04 00:53:40;;;;;;;25.10;4.30;;;13.20;99.90;;;;;;4894783;29;20068;-69
2021/12/04 00:56:06;;;;;;;28.85;4.55;;;13.10;99.90;;;;;;4892266;29;20024;-70
2021/12/04 00:58:32;;;;;;;22.38;4.75;;;13.10;99.90;;;;;;4895806;29;20037;-68
2021/12/04 01:00:58;;;;;;;20.05;3.75;;;13.10;99.90;;;;;;4891731;29;20108;-68
2021/12/04 01:03:24;;;;;;;26.23;4.20;;;13.20;99.90;;;;;;4890855;29;20033;-69
2021/12/04 01:05:50;;;;;;;25.23;4.30;;;13.20;99.90;;;;;;4898995;29;20043;-69
2021/12/04 01:08:16;;;;;;;27.02;4.10;;;13.10;99.90;;;;;;4899491;29;20040;-70
2021/12/04 01:10:42;;;;;;;28.15;4.75;;;13.20;99.90;;;;;;4900113;29;20490;-69
2021/12/04 01:13:11;;;;;;;27.38;4.90;;;13.20;99.90;;;;;;4890986;29;20506;-69
2021/12/04 01:15:43;;;;;;;27.35;4.25;;;13.20;99.90;;;;;;4887501;29;20033;-68
2021/12/04 01:18:09;;;;;;;29.25;4.68;;;13.20;99.90;;;;;;4898438;29;20056;-69
2021/12/04 01:20:35;;;;;;;23.15;4.82;;;13.10;99.90;;;;;;4882155;29;20410;-69
2021/12/04 01:23:01;;;;;;;28.05;4.30;;;13.20;99.90;;;;;;4896364;29;20402;-69
2021/12/04 01:25:27;;;;;;;23.58;3.85;;;13.20;99.90;;;;;;4881371;29;20036;-68
2021/12/04 01:27:53;;;;;;;27.17;4.40;;;13.10;99.90;;;;;;4894496;29;20028;-69
2021/12/04 01:30:19;;;;;;;21.50;3.58;;;13.20;99.90;;;;;;4898712;29;20394;-68
2021/12/04 01:32:44;;;;;;;22.58;3.97;;;13.20;99.90;;;;;;4897090;29;20033;-69
2021/12/04 01:35:10;;;;;;;24.63;4.30;;;13.20;99.90;;;;;;4896483;29;20031;-70
2021/12/04 01:37:36;;;;;;;21.10;3.38;;;13.10;99.90;;;;;;4898719;29;20037;-70
2021/12/04 01:40:04;;;;;;;20.75;3.80;;;13.10;99.90;;;;;;4898402;29;20383;-70
2021/12/04 01:42:32;;;;;;;18.67;3.08;;;13.10;99.90;;;;;;4894196;29;20040;-70
2021/12/04 01:44:58;;;;;;;12.40;2.88;;;13.10;99.90;;;;;;4898381;29;20056;-70
2021/12/04 01:47:24;;;;;;;19.65;3.50;;;13.20;99.90;;;;;;4898145;29;20053;-70
2021/12/04 01:49:51;;;;;;;14.50;3.88;;;13.10;99.90;;;;;;4900004;29;20036;-69
2021/12/04 01:52:18;;;;;;;24.08;3.67;;;13.10;99.90;;;;;;4898284;29;20029;-70
2021/12/04 01:54:45;;;;;;;23.83;3.60;;;13.00;99.90;;;;;;4898241;29;20029;-70
2021/12/04 01:57:16;;;;;;;19.70;3.35;;;13.00;99.90;;;;;;4898011;29;20035;-69
2021/12/04 01:59:43;;;;;;;22.15;3.50;;;13.00;99.90;;;;;;4898233;29;20025;-69
2021/12/04 02:02:10;;;;;;;24.83;4.03;;;12.90;99.90;;;;;;4898103;29;20028;-70
2021/12/04 02:04:35;;;;;;;19.48;3.67;;;13.00;99.90;;;;;;4898922;29;20072;-69
2021/12/04 02:07:04;;;;;;;24.23;4.05;;;13.10;99.90;;;;;;4898045;29;20061;-70
2021/12/04 02:09:32;;;;;;;21.33;4.13;;;13.10;99.90;;;;;;4897988;29;20451;-69
2021/12/04 02:11:58;;;;;;;17.75;3.53;;;13.00;99.90;;;;;;4895245;29;20025;-68
2021/12/04 02:14:23;;;;;;;26.08;3.65;;;13.10;99.90;;;;;;4896871;29;20039;-69
2021/12/04 02:16:50;;;;;;;25.40;4.40;;;13.10;99.90;;;;;;4899214;29;20028;-70
2021/12/04 02:19:17;;;;;;;16.02;3.35;;;13.10;99.90;;;;;;4898095;29;20077;-70
2021/12/04 02:21:43;;;;;;;21.40;3.47;;;13.00;99.90;;;;;;4893691;29;20024;-68
2021/12/04 02:24:08;;;;;;;18.08;4.13;;;13.20;99.90;;;;;;4897610;29;20024;-69
2021/12/04 02:26:34;;;;;;;25.27;4.15;;;13.10;99.90;;;;;;4880943;29;20051;-69
2021/12/04 02:29:00;;;;;;;19.63;3.45;;;13.20;99.90;;;;;;4895180;29;20033;-70
2021/12/04 02:31:26;;;;;;;19.58;3.30;;;13.20;99.90;;;;;;4876411;29;20120;-69
2021/12/04 02:33:53;;;;;;;26.67;4.07;;;13.20;99.90;;;;;;4897330;29;20060;-70
2021/12/04 02:36:19;;;;;;;17.98;3.22;;;13.10;99.90;;;;;;4897671;29;20463;-69
2021/12/04 02:38:49;;;;;;;20.60;3.95;;;13.10;99.90;;;;;;4897676;29;20111;-70
2021/12/04 02:41:15;;;;;;;24.15;3.50;;;13.10;99.90;;;;;;4897922;29;20367;-68
2021/12/04 02:43:41;;;;;;;31.50;4.35;;;13.10;99.90;;;;;;4881716;29;20032;-68
2021/12/04 02:46:07;;;;;;;18.17;3.53;;;13.00;99.90;;;;;;4896969;29;20064;-69
2021/12/04 02:48:33;;;;;;;18.48;3.22;;;13.00;99.90;;;;;;4897103;29;20469;-69
2021/12/04 02:50:58;;;;;;;17.95;3.53;;;13.00;99.90;;;;;;4894620;29;20028;-69
2021/12/04 02:53:24;;;;;;;25.48;4.28;;;12.90;99.90;;;;;;4896186;29;20040;-68
2021/12/04 02:55:52;;;;;;;17.88;3.30;;;12.90;99.90;;;;;;4898524;29;20043;-68
2021/12/04 02:58:19;;;;;;;15.30;3.10;;;12.90;99.90;;;;;;4892909;29;20064;-68
2021/12/04 03:00:50;;;;;;;19.92;3.30;;;12.90;99.90;;;;;;4897152;29;20032;-68
2021/12/04 03:03:19;;;;;;;15.13;3.30;;;12.80;99.90;;;;;;4896718;29;20067;-68
2021/12/04 03:05:48;;;;;;;13.05;2.50;;;12.80;99.90;;;;;;4897097;29;20045;-69
2021/12/04 03:08:14;;;;;;;14.65;2.65;;;12.80;99.90;;;;;;4882081;29;20108;-69
2021/12/04 03:10:40;;;;;;;19.55;2.78;;;12.70;99.90;;;;;;4898128;29;20172;-67
2021/12/04 03:13:09;;;;;;;15.80;2.65;;;12.60;99.90;;;;;;4896586;29;20487;-70
2021/12/04 03:15:37;;;;;;;14.02;2.92;;;12.60;99.90;;;;;;4896808;29;20028;-68
2021/12/04 03:18:03;;;;;;;13.68;2.28;;;12.60;99.90;;;;;;4896731;29;20036;-70
2021/12/04 03:20:29;;;;;;;10.35;2.53;;;12.60;99.90;;;;;;4897249;29;20033;-67
2021/12/04 03:22:59;;;;;;;11.98;2.28;;;12.50;99.90;;;;;;4897782;29;20498;-70
2021/12/04 03:25:25;;;;;;;12.27;2.22;;;12.50;99.90;;;;;;4896623;29;20407;-67
2021/12/04 03:27:52;;;;;;;10.18;1.77;;;12.50;99.90;;;;;;4895625;29;20044;-68
2021/12/04 03:41:02;;;;;;;7.80;1.50;;;12.50;99.90;;;;;;4893891;29;20554;-70
2021/12/04 03:43:29;;;;;;;11.00;1.90;;;12.50;99.90;;;;;;4892232;29;20037;-68
2021/12/04 03:45:59;;;;;;;12.15;1.90;;;12.50;99.90;;;;;;4896146;29;20131;-68
2021/12/04 03:48:50;;;;;;;10.57;1.80;;;12.50;99.90;;;;;;4896200;29;20036;-68
2021/12/04 03:51:14;;;;;;;10.82;1.70;;;12.40;99.90;;;;;;4895784;29;20035;-68
2021/12/04 03:53:40;;;;;;;9.07;1.70;;;12.40;99.90;;;;;;4895773;29;20040;-69
2021/12/04 03:56:06;;;;;;;8.55;1.77;;;12.50;99.90;;;;;;4893609;29;20109;-68
2021/12/04 03:58:32;;;;;;;13.50;1.77;;;12.50;99.90;;;;;;4896314;29;20029;-68
2021/12/04 04:00:58;;;;;;;10.48;1.92;;;12.40;99.90;;;;;;4892028;29;20067;-68
2021/12/04 04:03:26;;;;;;;8.05;1.60;;;12.50;99.90;;;;;;4896063;29;20052;-69
2021/12/04 04:05:53;;;;;;;7.95;1.67;;;12.40;99.90;;;;;;4893546;29;20506;-68
2021/12/04 04:08:19;;;;;;;7.55;1.48;;;12.50;99.90;;;;;;4894456;29;20471;-68
2021/12/04 04:10:47;;;;;;;6.40;1.38;;;12.50;99.90;;;;;;4884405;29;20032;-68
2021/12/04 04:13:12;;;;;;;7.15;1.88;;;12.40;99.90;;;;;;4893884;29;20024;-68
2021/12/04 04:15:39;;;;;;;7.85;1.88;;;12.40;99.90;;;;;;4891556;29;20040;-68
2021/12/04 04:18:05;;;;;;;7.75;1.73;;;12.40;99.90;;;;;;4875623;29;20028;-68
2021/12/04 04:20:31;;;;;;;10.00;1.70;;;12.40;99.90;;;;;;4895214;29;20410;-68
2021/12/04 04:22:57;;;;;;;10.90;1.63;;;12.40;99.90;;;;;;4897435;29;20024;-69
2021/12/04 04:25:23;;;;;;;9.00;1.83;;;12.40;99.90;;;;;;4895325;29;20032;-68
2021/12/04 04:27:50;;;;;;;5.15;1.70;;;12.40;99.90;;;;;;4895724;29;20574;-68
2021/12/04 04:30:19;;;;;;;7.57;2.20;;;12.30;99.90;;;;;;4895880;29;20079;-69
2021/12/04 04:32:48;;;;;;;6.90;1.77;;;12.20;99.90;;;;;;4895463;29;20031;-68
2021/12/04 04:35:33;;;;;;;5.40;1.75;;;12.20;99.90;;;;;;4895686;29;20060;-68
2021/12/04 04:38:09;;;;;;;5.78;1.65;;;12.20;99.90;;;;;;4882089;29;20380;-67
2021/12/04 05:13:27;;;;;;;;;;;12.00;99.90;;;;;;4895603;29;20578;-67
2021/12/04 05:20:54;;;;;;;6.13;1.73;;;11.90;99.90;;;;;;4895282;29;20486;-67
2021/12/04 05:23:22;;;;;;;3.95;1.70;;;12.00;99.90;;;;;;4895017;29;20036;-68
2021/12/04 05:25:48;;;;;;;5.72;1.70;;;12.00;99.90;;;;;;4881891;29;20029;-68
2021/12/04 05:28:14;;;;;;;5.80;1.50;;;11.90;99.90;;;;;;4888857;29;20032;-68
2021/12/04 05:30:39;;;;;;;4.72;1.42;;;12.00;99.90;;;;;;4890772;29;20111;-67
2021/12/04 05:33:05;;;;;;;7.97;1.73;;;12.00;99.90;;;;;;4891238;29;20060;-68
2021/12/04 05:35:31;;;;;;;5.60;1.77;;;12.00;99.90;;;;;;4894889;29;20032;-67
2021/12/04 05:37:57;;;;;;;12.43;1.90;;;12.00;99.90;;;;;;4895900;29;20035;-68
2021/12/04 05:40:23;;;;;;;3.80;1.40;;;12.00;99.90;;;;;;4895157;29;20501;-68
2021/12/04 05:42:49;;;;;;;5.55;1.40;;;12.00;99.90;;;;;;4894907;29;20040;-68
2021/12/04 05:45:22;;;;;;;3.80;1.23;;;12.00;99.90;;;;;;4876787;29;20052;-68
2021/12/04 05:47:59;;;;;;;6.45;1.50;;;12.00;99.90;;;;;;4881527;29;20463;-67
2021/12/04 05:55:54;;;;;;;6.95;1.30;;;12.00;99.90;;;;;;4899484;29;20025;-68
2021/12/04 05:58:25;;;;;;;4.30;1.17;;;12.00;99.90;;;;;;4898189;29;20148;-67
2021/12/04 06:00:52;;;;;;;6.80;1.83;;;12.10;99.90;;;;;;4898060;29;20021;-66
2021/12/04 06:03:18;;;;;;;2.67;1.20;;;12.10;99.90;;;;;;4897644;29;20033;-67
2021/12/04 06:05:44;;;;;;;6.20;1.30;;;12.10;99.90;;;;;;4897096;29;20027;-66
2021/12/04 06:08:10;;;;;;;4.50;1.30;;;12.10;99.90;;;;;;4895013;29;20537;-67
2021/12/04 06:10:36;;;;;;;7.13;1.48;;;12.20;99.90;;;;;;4899042;29;20107;-66
2021/12/04 06:13:02;;;;;;;4.90;1.10;;;12.20;99.90;;;;;;4897605;29;20111;-66
2021/12/04 06:15:28;;;;;;;5.50;1.80;;;12.10;99.90;;;;;;4897897;29;20048;-66
2021/12/04 06:17:55;;;;;;;3.95;1.50;;;12.20;99.90;;;;;;4897702;29;20573;-67
2021/12/04 06:23:06;;;;;;;4.38;1.10;;;12.30;99.90;;;;;;4894930;29;20459;-66
2021/12/04 06:25:31;;;;;;;4.00;1.40;;;12.30;99.90;;;;;;4898070;29;20115;-66
2021/12/04 06:27:57;;;;;;;3.63;1.15;;;12.30;99.90;;;;;;4897567;29;20036;-67
2021/12/04 06:30:25;;;;;;;4.90;1.23;;;12.30;99.90;;;;;;4893930;29;20025;-67
2021/12/04 06:32:53;;;;;;;4.00;1.17;;;12.30;99.90;;;;;;4878781;29;20036;-67
2021/12/04 06:35:20;;;;;;;5.68;1.15;;;12.30;99.90;;;;;;4895711;29;20033;-67
2021/12/04 06:37:48;;;;;;;4.43;1.10;;;12.20;99.90;;;;;;4884022;29;20021;-67
2021/12/04 06:40:14;;;;;;;4.75;1.42;;;12.30;99.90;;;;;;4895491;29;20108;-67
2021/12/04 06:42:41;;;;;;;5.53;1.52;;;12.30;99.90;;;;;;4876330;29;20029;-67
2021/12/04 06:45:08;;;;;;;5.78;1.55;;;12.40;99.90;;;;;;4893407;29;20049;-67
2021/12/04 06:47:35;;;;;;;7.10;1.30;;;12.40;99.90;;;;;;4897351;29;20044;-67
2021/12/04 06:50:06;;;;;;;5.25;1.42;;;12.50;99.90;;;;;;4898825;29;20076;-67
2021/12/04 06:52:32;;;;;;;8.75;1.60;;;12.50;99.90;;;;;;4897156;29;20036;-65
2021/12/04 06:55:00;;;;;;;7.38;1.67;;;12.60;99.90;;;;;;4896959;29;20028;-66
2021/12/04 06:57:32;;;;;;;11.88;2.20;;;12.60;99.90;;;;;;4897004;29;20039;-66
2021/12/04 06:59:58;;;;;;;14.48;2.60;;;12.60;99.90;;;;;;4897054;29;20024;-67
2021/12/04 07:02:23;;;;;;;19.15;3.45;;;12.70;99.90;;;;;;4896407;29;20076;-66
2021/12/04 07:04:49;;;;;;;20.45;3.38;;;12.90;99.90;;;;;;4879808;29;20594;-66
2021/12/04 07:07:16;;;;;;;27.10;4.00;;;12.90;99.90;;;;;;4894369;29;20040;-67
2021/12/04 07:09:42;;;;;;;28.17;4.85;;;13.00;99.90;;;;;;4892877;29;20024;-66
2021/12/04 07:12:09;;;;;;;24.27;4.38;;;13.00;99.90;;;;;;4896710;29;20116;-67
2021/12/04 07:14:35;;;;;;;23.27;4.45;;;13.00;99.90;;;;;;4896866;29;20055;-67
2021/12/04 07:17:03;;;;;;;21.63;4.68;;;13.00;99.90;;;;;;4898606;29;20490;-67
2021/12/04 07:19:30;;;;;;;24.45;4.07;;;13.10;99.90;;;;;;4896292;29;20025;-67
2021/12/04 07:21:56;;;;;;;16.70;3.30;;;13.10;99.90;;;;;;4896474;29;20096;-67
2021/12/04 07:24:22;;;;;;;13.80;2.97;;;13.00;99.90;;;;;;4892656;29;20089;-66
2021/12/04 07:26:48;;;;;;;16.38;3.42;;;13.10;99.90;;;;;;4896645;29;20499;-67
2021/12/04 07:29:14;;;;;;;11.27;2.40;;;13.20;99.90;;;;;;4896544;29;20399;-67
2021/12/04 07:31:40;;;;;;;17.83;2.83;;;13.10;99.90;;;;;;4893994;29;20032;-67
2021/12/04 07:34:06;;;;;;;17.50;2.97;;;13.20;99.90;;;;;;4896043;29;20479;-67
2021/12/04 07:36:32;;;;;;;19.60;4.35;;;13.20;99.90;;;;;;4896430;29;20036;-67
2021/12/04 07:39:01;;;;;;;19.02;4.32;;;13.20;99.90;;;;;;4896632;29;20017;-67
2021/12/04 07:41:27;;;;;;;19.15;4.28;;;13.20;99.90;;;;;;4896357;29;20040;-67
2021/12/04 07:43:54;;;;;;;22.02;4.00;;;13.20;99.90;;;;;;4897686;29;20045;-67
2021/12/04 07:46:20;;;;;;;19.20;3.75;;;13.30;99.90;;;;;;4896339;29;20510;-66
2021/12/04 07:48:46;;;;;;;20.67;3.78;;;13.30;99.90;;;;;;4891778;29;20053;-67
2021/12/04 07:51:12;;;;;;;23.48;3.83;;;13.30;99.90;;;;;;4896046;29;20033;-66
2021/12/04 07:53:38;;;;;;;23.35;4.38;;;13.30;99.90;;;;;;4896581;29;20036;-65
2021/12/04 07:56:06;;;;;;;33.00;5.13;;;13.30;99.90;;;;;;4897482;29;20442;-66
2021/12/04 07:58:32;;;;;;;32.70;4.82;;;13.30;99.90;;;;;;4896344;29;20491;-67
2021/12/04 08:00:58;;;;;;;26.23;4.75;;;13.30;99.90;;;;;;4896174;29;20032;-67
2021/12/04 08:03:23;;;;;;;35.63;5.65;;;13.30;99.90;;;;;;4891461;29;20116;-67
2021/12/04 08:05:50;;;;;;;35.05;5.85;;;13.30;99.90;;;;;;4896185;29;20134;-66
2021/12/04 08:08:16;;;;;;;33.55;6.10;;;13.30;99.90;;;;;;4896249;29;20025;-67
2021/12/04 08:10:42;;;;;;;33.65;5.32;;;13.30;99.90;;;;;;4892850;29;20040;-67
2021/12/04 08:13:07;;;;;;;29.27;5.82;;;13.30;99.90;;;;;;4895586;29;20036;-67
2021/12/04 08:15:36;;;;;;;29.40;4.93;;;13.40;99.90;;;;;;4895574;29;20032;-66
2021/12/04 08:18:04;;;;;;;26.58;4.75;;;13.30;99.90;;;;;;4895906;29;20037;-67
2021/12/04 08:20:29;;;;;;;24.45;4.30;;;13.30;99.90;;;;;;4895878;29;20036;-66
2021/12/04 08:22:55;;;;;;;26.95;5.22;;;13.30;99.90;;;;;;4896954;29;20027;-67
2021/12/04 08:25:22;;;;;;;30.58;5.45;;;13.30;99.90;;;;;;4896074;29;20040;-67
2021/12/04 08:27:49;;;;;;;30.35;4.82;;;13.10;99.90;;;;;;4891408;29;20119;-66
2021/12/04 08:30:23;;;;;;;27.20;4.68;;;13.00;99.90;;;;;;4895087;29;20076;-67
2021/12/04 08:32:52;;;;;;;34.10;5.35;;;13.00;99.90;;;;;;4895063;29;20028;-66
2021/12/04 08:35:18;;;;;;;35.42;5.53;;;13.10;99.90;;;;;;4895584;29;20029;-67
2021/12/04 08:37:45;;;;;;;31.85;5.45;;;13.00;99.90;;;;;;4896489;29;20487;-66
2021/12/04 08:40:14;;;;;;;32.67;5.82;;;13.10;99.90;;;;;;4895228;29;20506;-66
2021/12/04 08:42:45;;;;;;;34.10;6.53;;;13.10;99.90;;;;;;4891685;29;20041;-67
2021/12/04 08:45:13;;;;;;;38.03;5.68;;;13.10;99.90;;;;;;4895205;29;20530;-66
2021/12/04 08:47:40;;;;;;;35.15;6.18;;;13.00;99.90;;;;;;4895235;29;20602;-66
2021/12/04 08:50:09;;;;;;;36.00;6.72;;;13.00;99.90;;;;;;4897068;29;20028;-67
2021/12/04 08:52:36;;;;;;;34.78;6.47;;;13.10;99.90;;;;;;4891321;29;20311;-67
2021/12/04 08:55:04;;;;;;;37.22;7.10;;;13.00;99.90;;;;;;4891026;29;20406;-65
2021/12/04 08:57:29;;;;;;;43.50;10.32;;;12.90;99.90;;;;;;4895184;29;20522;-65
2021/12/04 08:59:55;;;;;;;60.65;25.40;;;13.00;99.90;;;;;;4895632;29;20021;-67
2021/12/04 09:02:21;;;;;;;100.63;48.70;;;13.00;99.90;;;;;;4895363;29;20029;-67
2021/12/04 09:04:48;;;;;;;79.13;41.47;;;12.90;99.90;;;;;;4881369;29;20056;-66
2021/12/04 09:07:16;;;;;;;69.45;32.55;;;12.90;99.90;;;;;;4892717;29;20140;-66
2021/12/04 09:09:42;;;;;;;59.38;25.65;;;12.90;99.90;;;;;;4894844;29;20017;-67
2021/12/04 09:12:10;;;;;;;58.85;17.70;;;12.90;99.90;;;;;;4890691;29;20097;-67
2021/12/04 09:14:38;;;;;;;127.93;66.15;;;12.90;99.90;;;;;;4895729;29;20017;-67
2021/12/04 09:17:07;;;;;;;70.50;37.55;;;12.90;99.90;;;;;;4892110;29;20032;-67
2021/12/04 09:19:33;;;;;;;55.42;18.90;;;12.90;99.90;;;;;;4890810;29;20025;-64
2021/12/04 09:22:00;;;;;;;44.53;15.85;;;12.90;99.90;;;;;;4890492;29;20035;-65
2021/12/04 09:24:37;;;;;;;64.45;30.02;;;12.90;99.90;;;;;;4894683;29;20024;-65
2021/12/04 09:27:33;;;;;;;83.63;43.38;;;12.90;99.90;;;;;;4898966;29;20051;-66
2021/12/04 10:12:56;;;;;;;23.63;6.20;;;19.20;99.90;;;;;;4893416;29;20451;-66
2021/12/04 10:24:04;;;;;;;31.42;9.65;;;19.40;99.90;;;;;;4882814;29;20021;-66
2021/12/04 10:35:00;;;;;;;50.03;25.90;;;19.10;99.90;;;;;;4884597;29;20037;-65
2021/12/04 10:37:29;;;;;;;28.55;11.27;;;20.00;99.90;;;;;;4894868;29;20036;-65
2021/12/04 10:40:00;;;;;;;33.83;12.60;;;19.40;99.90;;;;;;4893111;29;20096;-65
2021/12/04 10:42:34;;;;;;;37.78;13.35;;;18.20;99.90;;;;;;4896546;29;20028;-65
2021/12/04 10:45:01;;;;;;;41.33;20.88;;;17.00;99.90;;;;;;4894184;29;20089;-66
2021/12/04 10:47:28;;;;;;;32.97;8.23;;;16.10;99.90;;;;;;4895639;29;20059;-65
2021/12/04 10:53:01;;;;;;;60.30;37.05;;;16.70;99.90;;;;;;4897607;29;20099;-65
2021/12/04 11:01:34;;;;;;;29.55;12.65;;;17.20;99.90;;;;;;4896663;29;20033;-66
2021/12/04 11:07:15;;;;;;;26.25;7.07;;;16.90;99.90;;;;;;4896778;29;20040;-66
2021/12/04 11:24:03;;;;;;;34.65;8.95;;;17.70;99.90;;;;;;4881522;29;20406;-65
2021/12/04 11:40:22;;;;;;;27.58;7.15;;;16.10;99.90;;;;;;4896444;29;20037;-66
2021/12/04 11:42:54;;;;;;;31.75;8.30;;;17.00;99.90;;;;;;4896550;29;20122;-66
2021/12/04 11:45:29;;;;;;;27.63;7.72;;;16.80;99.90;;;;;;4895888;29;20112;-66
2021/12/04 11:48:01;;;;;;;29.65;8.38;;;16.90;99.90;;;;;;4895785;29;20040;-66
2021/12/04 11:50:30;;;;;;;29.52;8.43;;;16.70;99.90;;;;;;4895891;29;20024;-67
2021/12/04 11:53:10;;;;;;;35.20;8.20;;;17.10;99.90;;;;;;4897456;29;20043;-66
2021/12/04 11:55:41;;;;;;;28.40;6.53;;;17.30;99.90;;;;;;4896589;29;20069;-66
2021/12/04 11:58:20;;;;;;;32.45;8.32;;;17.00;99.90;;;;;;4891989;29;20039;-67
2021/12/04 12:00:47;;;;;;;33.47;7.25;;;17.80;99.90;;;;;;4895995;29;20036;-68
2021/12/04 12:03:23;;;;;;;33.10;8.38;;;17.10;99.90;;;;;;4896259;29;20033;-65
2021/12/04 12:05:58;;;;;;;31.52;7.47;;;16.80;99.90;;;;;;4896134;29;20052;-67
2021/12/04 12:08:23;;;;;;;40.63;10.50;;;16.10;99.90;;;;;;4895879;29;20043;-68
2021/12/04 12:10:53;;;;;;;39.30;7.78;;;16.20;99.90;;;;;;4896892;29;20459;-68
2021/12/04 12:13:31;;;;;;;32.78;7.40;;;16.00;99.90;;;;;;4895783;29;20036;-68
2021/12/04 12:16:03;;;;;;;32.70;8.43;;;15.80;99.90;;;;;;4895871;29;20041;-68
2021/12/04 12:18:29;;;;;;;26.70;6.60;;;15.20;99.90;;;;;;4895936;29;20036;-67
2021/12/04 12:21:02;;;;;;;22.27;4.55;;;14.50;99.90;;;;;;4893743;29;20039;-67
2021/12/04 12:23:32;;;;;;;10.77;3.70;;;14.00;99.90;;;;;;4894651;29;20519;-67
2021/12/04 12:26:16;;;;;;;13.95;4.55;;;13.60;99.90;;;;;;4896764;29;20032;-67
2021/12/04 12:37:23;;;;;;;14.25;3.83;;;12.80;99.90;;;;;;4856234;29;20041;-67
2021/12/04 12:40:01;;;;;;;20.38;3.83;;;12.90;99.90;;;;;;4855927;29;20065;-67
2021/12/04 12:42:40;;;;;;;18.80;4.65;;;12.80;99.90;;;;;;4856065;29;20942;-67
2021/12/04 12:45:27;;;;;;;21.85;5.07;;;12.90;99.90;;;;;;4855972;29;20499;-67
2021/12/04 12:48:06;;;;;;;23.98;5.38;;;13.10;99.90;;;;;;4843361;29;20050;-67
2021/12/04 12:50:53;;;;;;;23.58;5.15;;;13.50;99.90;;;;;;4854912;29;20033;-67
2021/12/04 12:53:27;;;;;;;28.10;4.93;;;14.00;99.90;;;;;;4853690;29;20069;-67
2021/12/04 12:56:06;;;;;;;23.80;4.88;;;13.60;99.90;;;;;;4857444;29;20029;-67
2021/12/04 12:58:42;;;;;;;26.27;5.20;;;13.60;99.90;;;;;;4855973;29;20049;-67
2021/12/04 13:12:46;;;;;;;20.52;5.05;;;13.40;99.90;;;;;;4866524;29;20044;-68
2021/12/04 13:15:16;;;;;;;23.35;4.50;;;13.00;99.90;;;;;;4884796;29;20029;-67
2021/12/04 13:17:42;;;;;;;20.15;5.05;;;13.00;99.90;;;;;;4898408;29;20410;-66
2021/12/04 13:20:10;;;;;;;25.10;4.68;;;13.00;99.90;;;;;;4879710;29;20041;-68
2021/12/04 13:22:36;;;;;;;22.42;4.60;;;13.30;99.90;;;;;;4899391;29;20031;-68
2021/12/04 13:25:08;;;;;;;19.52;3.88;;;13.00;99.90;;;;;;4877835;29;20475;-69
2021/12/04 13:30:07;;;;;;;22.08;4.82;;;12.90;99.90;;;;;;4898925;29;20033;-67
2021/12/04 13:32:36;;;;;;;19.65;4.32;;;13.00;99.90;;;;;;4898753;29;20123;-68
2021/12/04 13:35:06;;;;;;;18.83;4.10;;;13.20;99.90;;;;;;4899913;29;20044;-67
2021/12/04 13:37:32;;;;;;;21.88;4.35;;;13.30;99.90;;;;;;4893699;29;20024;-67
2021/12/04 13:40:04;;;;;;;25.35;4.80;;;13.20;99.90;;;;;;4893970;29;20062;-67
2021/12/04 13:42:29;;;;;;;22.67;4.30;;;13.10;99.90;;;;;;4898103;29;20025;-67
2021/12/04 13:45:06;;;;;;;19.48;3.92;;;12.90;99.90;;;;;;4898373;29;20079;-67
2021/12/04 13:47:32;;;;;;;26.98;4.90;;;12.80;99.90;;;;;;4898242;29;20105;-67
2021/12/04 13:50:00;;;;;;;26.40;5.38;;;12.80;99.90;;;;;;4900062;29;20510;-67
2021/12/04 13:52:31;;;;;;;22.40;5.22;;;13.00;99.90;;;;;;4897926;29;20044;-67
2021/12/04 13:55:03;;;;;;;30.25;8.50;;;12.80;99.90;;;;;;4894191;29;20049;-68
2021/12/04 13:57:29;;;;;;;48.10;36.38;;;12.90;99.90;;;;;;4898043;29;20036;-68
2021/12/04 14:00:03;;;;;;;40.38;21.67;;;13.00;99.90;;;;;;4896346;29;20040;-68
2021/12/04 14:02:31;;;;;;;72.78;56.30;;;13.30;99.90;;;;;;4897039;29;20060;-68
2021/12/04 14:05:01;;;;;;;48.10;24.45;;;13.00;99.90;;;;;;4899434;29;20024;-68
2021/12/04 14:07:27;;;;;;;41.80;27.33;;;13.00;99.90;;;;;;4897626;29;20053;-64
2021/12/04 14:09:53;;;;;;;44.70;33.17;;;12.20;99.90;;;;;;4898284;29;20032;-63
2021/12/04 14:12:19;;;;;;;55.15;43.90;;;12.30;99.90;;;;;;4897549;29;20040;-65
2021/12/04 14:14:45;;;;;;;13.10;5.88;;;12.30;99.90;;;;;;4897871;29;20031;-66
2021/12/04 14:17:14;;;;;;;29.17;21.17;;;12.20;99.90;;;;;;4898470;29;20041;-66
2021/12/04 14:19:40;;;;;;;45.58;38.97;;;11.90;99.90;;;;;;4894709;29;20040;-65
2021/12/04 14:22:08;;;;;;;41.63;35.78;;;12.10;99.90;;;;;;4893415;29;20487;-67
2021/12/04 14:25:03;;;;;;;44.25;34.80;;;12.00;99.90;;;;;;4897623;29;20089;-66
2021/12/04 14:27:32;;;;;;;15.85;6.32;;;11.90;99.90;;;;;;4895444;29;20066;-66
2021/12/04 14:30:16;;;;;;;33.47;14.48;;;11.50;99.90;;;;;;4897657;29;20029;-64
2021/12/04 14:32:45;;;;;;;47.83;37.38;;;11.80;99.90;;;;;;4883254;29;20036;-65
2021/12/04 14:35:15;;;;;;;19.70;6.55;;;11.50;99.90;;;;;;4897934;29;20460;-67
2021/12/04 14:37:43;;;;;;;25.50;14.18;;;11.30;99.90;;;;;;4894444;29;20458;-66
2021/12/04 14:40:14;;;;;;;22.35;7.03;;;11.30;99.90;;;;;;4893498;29;20029;-67
2021/12/04 14:42:41;;;;;;;25.80;15.70;;;11.40;99.90;;;;;;4897332;29;20032;-66
2021/12/04 14:45:11;;;;;;;26.73;13.05;;;11.40;99.90;;;;;;4897112;29;20048;-65
2021/12/04 14:47:42;;;;;;;20.10;8.45;;;11.20;99.90;;;;;;4897948;29;20055;-64
2021/12/04 14:50:11;;;;;;;17.88;5.53;;;11.20;99.90;;;;;;4894635;29;20486;-66
2021/12/04 14:52:37;;;;;;;38.45;21.17;;;11.40;99.90;;;;;;4898048;29;20037;-66
2021/12/04 14:55:21;;;;;;;18.27;6.75;;;11.30;99.90;;;;;;4897209;29;20061;-65
2021/12/04 14:57:47;;;;;;;26.20;9.82;;;11.00;99.90;;;;;;4897063;29;20031;-66
2021/12/04 15:00:21;;;;;;;30.38;13.18;;;11.10;99.90;;;;;;4892838;29;20033;-66
2021/12/04 15:02:58;;;;;;;28.80;9.13;;;11.10;99.90;;;;;;4897149;29;20028;-66
2021/12/04 15:05:26;;;;;;;25.60;7.82;;;11.00;99.90;;;;;;4896768;29;20049;-66
2021/12/04 15:08:04;;;;;;;22.77;6.47;;;11.10;99.90;;;;;;4883677;29;20112;-65
2021/12/04 15:10:30;;;;;;;18.30;6.72;;;11.00;99.90;;;;;;4896446;29;20092;-66
2021/12/04 15:12:58;;;;;;;19.27;4.65;;;11.20;99.90;;;;;;4892853;29;20510;-66
2021/12/04 15:15:28;;;;;;;22.05;7.07;;;11.10;99.90;;;;;;4896861;29;20040;-64
2021/12/04 15:17:56;;;;;;;18.20;5.45;;;11.10;99.90;;;;;;4894926;29;20115;-65
2021/12/04 15:20:30;;;;;;;11.25;3.30;;;11.20;99.90;;;;;;4894625;29;20080;-64
2021/12/04 15:22:58;;;;;;;34.05;16.70;;;11.00;99.90;;;;;;4883182;29;20085;-67
2021/12/04 15:25:30;;;;;;;81.95;52.60;;;11.00;99.90;;;;;;4895112;29;20032;-66
2021/12/04 15:27:57;;;;;;;29.15;14.88;;;11.10;99.90;;;;;;4895926;29;20044;-67
2021/12/04 15:30:22;;;;;;;43.33;34.83;;;11.10;99.90;;;;;;4896304;29;20044;-67
2021/12/04 15:32:48;;;;;;;185.68;165.82;;;10.90;99.90;;;;;;4879410;29;20032;-68
2021/12/04 15:35:28;;;;;;;24.52;19.20;;;10.90;99.90;;;;;;4882819;29;20039;-68
2021/12/04 15:38:03;;;;;;;31.05;25.92;;;10.80;99.90;;;;;;4883169;29;20037;-66
2021/12/04 15:40:47;;;;;;;16.40;5.55;;;10.80;99.90;;;;;;4895633;29;20043;-68
2021/12/04 15:43:54;;;;;;;17.23;4.20;;;10.70;99.90;;;;;;4896312;29;20490;-68
2021/12/04 15:49:07;;;;;;;16.90;5.93;;;10.80;99.90;;;;;;4891861;29;20044;-67
2021/12/04 15:53:57;;;;;;;12.95;6.05;;;10.10;99.90;;;;;;4894123;29;20040;-68
2021/12/04 15:56:37;;;;;;;14.52;4.63;;;9.90;99.90;;;;;;4894453;29;20048;-68
2021/12/04 15:59:06;;;;;;;8.60;2.45;;;9.70;99.90;;;;;;4882600;29;20029;-68
2021/12/04 16:01:32;;;;;;;15.23;2.45;;;9.30;99.90;;;;;;4895540;29;20391;-67